Time;durP1;ratioP1;P1;durP2;ratioP2;P2;SDS_P1;SDS_P2;PMS_P1;PMS_P2;Temp;Humidity;BMP_temperature;BMP_pressure;BME280_temperature;BME280_humidity;BME280_pressure;Samples;Min_cycle;Max_cycle;Signal;HPM_P1;HPM_P2
2021/04/14 00:00:56;;;;;;;23.75;9.80;;;;;;;2.32;79.03;99451.23;2218689;80;21758;-73
2021/04/14 00:03:58;;;;;;;25.30;10.23;;;;;;;2.34;78.92;99453.34;2218330;80;21328;-73
2021/04/14 00:07:00;;;;;;;24.85;9.80;;;;;;;2.29;78.83;99457.31;2218759;80;21309;-73
2021/04/14 00:10:04;;;;;;;22.35;8.90;;;;;;;2.28;78.81;99459.48;2218353;80;21284;-74
2021/04/14 00:13:06;;;;;;;24.23;9.33;;;;;;;2.17;78.79;99463.98;2218692;80;21299;-73
2021/04/14 00:16:08;;;;;;;23.42;8.88;;;;;;;2.19;78.79;99457.06;2218390;80;21280;-73
2021/04/14 00:19:10;;;;;;;23.50;9.40;;;;;;;2.11;78.76;99455.03;2218355;80;21264;-73
2021/04/14 00:22:12;;;;;;;23.12;8.53;;;;;;;2.14;78.81;99461.45;2189732;80;21284;-73
2021/04/14 00:25:14;;;;;;;22.58;9.03;;;;;;;2.18;78.66;99457.48;2218495;80;21123;-72
2021/04/14 00:28:17;;;;;;;23.05;9.10;;;;;;;2.24;78.76;99457.40;2218386;80;21288;-72
2021/04/14 00:31:19;;;;;;;21.55;9.23;;;;;;;2.22;78.29;99451.83;2218147;80;21693;-75
2021/04/14 00:34:21;;;;;;;25.10;10.60;;;;;;;2.24;78.45;99453.94;2218332;80;21284;-73
2021/04/14 00:37:23;;;;;;;22.73;9.20;;;;;;;2.24;78.18;99457.82;2218467;80;21563;-73
2021/04/14 00:40:25;;;;;;;23.80;9.68;;;;;;;2.18;78.20;99452.30;2218298;80;21293;-72
2021/04/14 00:43:27;;;;;;;22.13;9.60;;;;;;;2.10;78.13;99450.30;2218623;80;21111;-75
2021/04/14 00:46:29;;;;;;;24.07;10.13;;;;;;;2.00;78.47;99449.59;2218388;80;21099;-74
2021/04/14 00:49:31;;;;;;;24.72;10.28;;;;;;;1.80;79.02;99441.30;2218338;80;21277;-74
2021/04/14 00:52:33;;;;;;;23.85;10.30;;;;;;;1.80;79.02;99441.30;2218330;80;21281;-73
2021/04/14 00:55:35;;;;;;;23.87;9.28;;;;;;;1.71;79.51;99443.56;2218372;80;21276;-75
2021/04/14 00:58:37;;;;;;;22.73;9.10;;;;;;;1.65;79.42;99441.08;2189943;80;21154;-75
2021/04/14 01:01:39;;;;;;;22.45;8.85;;;;;;;1.58;80.07;99443.34;2218408;80;21281;-76
2021/04/14 01:04:41;;;;;;;21.82;7.97;;;;;;;1.56;79.80;99438.19;2218379;80;21268;-75
2021/04/14 01:07:43;;;;;;;21.90;9.10;;;;;;;1.57;79.88;99445.08;2218355;80;21158;-79
2021/04/14 01:10:45;;;;;;;20.85;8.00;;;;;;;1.48;80.80;99442.19;2218306;80;21289;-75
2021/04/14 01:13:47;;;;;;;19.75;7.90;;;;;;;1.41;80.70;99444.44;2218721;80;21272;-76
2021/04/14 01:16:49;;;;;;;21.82;8.63;;;;;;;1.32;81.31;99442.84;2218337;80;21157;-74
2021/04/14 01:19:51;;;;;;;20.57;7.92;;;;;;;1.32;80.87;99438.09;2218425;80;21552;-79
2021/04/14 01:22:53;;;;;;;23.67;9.10;;;;;;;1.33;81.35;99435.48;2218308;80;21300;-76
2021/04/14 01:25:55;;;;;;;21.07;9.08;;;;;;;1.32;81.32;99431.21;2218323;80;21296;-75
2021/04/14 01:28:57;;;;;;;22.93;8.75;;;;;;;1.34;80.94;99433.77;2218493;80;21150;-73
2021/04/14 01:31:59;;;;;;;21.93;8.68;;;;;;;1.36;81.12;99434.59;2218278;80;21261;-78
2021/04/14 01:35:01;;;;;;;22.13;8.55;;;;;;;1.32;81.12;99431.63;2218366;80;21305;-75
2021/04/14 01:38:02;;;;;;;22.58;8.60;;;;;;;1.29;81.90;99432.52;2218422;80;21316;-75
2021/04/14 01:41:05;;;;;;;20.62;7.53;;;;;;;1.31;81.63;99431.23;2218289;80;21304;-78
2021/04/14 01:44:10;;;;;;;21.93;8.38;;;;;;;1.30;81.81;99429.52;2218208;80;21280;-77
2021/04/14 01:47:12;;;;;;;20.85;8.43;;;;;;;1.24;81.94;99425.73;2218437;80;21190;-76
2021/04/14 01:50:14;;;;;;;21.65;7.95;;;;;;;1.23;81.82;99426.59;2218411;80;21277;-78
2021/04/14 01:53:16;;;;;;;20.57;7.47;;;;;;;1.27;81.65;99421.81;2218329;80;21721;-77
2021/04/14 01:56:18;;;;;;;22.42;7.90;;;;;;;1.26;81.92;99419.64;2218266;80;21309;-79
2021/04/14 01:59:20;;;;;;;23.27;8.15;;;;;;;1.23;81.96;99420.14;2218288;80;21277;-77
2021/04/14 02:02:22;;;;;;;22.10;7.95;;;;;;;1.16;81.73;99418.06;2218352;80;21315;-80
2021/04/14 02:05:24;;;;;;;21.25;7.60;;;;;;;1.14;82.11;99421.95;2218284;80;21728;-80
2021/04/14 02:08:26;;;;;;;22.15;8.20;;;;;;;1.11;82.22;99412.96;2218525;80;21284;-78
2021/04/14 02:11:28;;;;;;;19.82;7.50;;;;;;;1.04;82.37;99412.17;2218665;80;21142;-77
2021/04/14 02:14:30;;;;;;;22.32;8.23;;;;;;;0.98;82.64;99408.83;2218315;80;21253;-78
2021/04/14 02:17:32;;;;;;;21.20;8.23;;;;;;;0.96;83.35;99406.27;2189689;80;21732;-77
2021/04/14 02:20:34;;;;;;;19.77;7.67;;;;;;;0.93;83.17;99406.28;2218614;80;21276;-80
2021/04/14 02:23:36;;;;;;;19.67;7.33;;;;;;;0.89;83.87;99413.68;2218564;80;21146;-78
2021/04/14 02:26:38;;;;;;;19.27;7.40;;;;;;;0.86;83.54;99408.11;2218634;80;21154;-77
2021/04/14 02:29:40;;;;;;;21.20;7.60;;;;;;;0.78;84.33;99395.72;2218502;80;21567;-74
2021/04/14 02:32:42;;;;;;;19.92;7.35;;;;;;;0.80;84.82;99402.99;2219395;80;21574;-74
2021/04/14 02:35:44;;;;;;;19.62;7.47;;;;;;;0.78;84.10;99403.46;2222568;80;21269;-74
2021/04/14 02:38:46;;;;;;;18.98;6.60;;;;;;;0.73;85.26;99401.80;2222849;80;21311;-77
2021/04/14 02:41:48;;;;;;;20.37;7.00;;;;;;;0.67;85.46;99407.45;2222557;80;21293;-78
2021/04/14 02:44:50;;;;;;;18.40;6.25;;;;;;;0.65;85.56;99401.45;2222618;80;21126;-76
2021/04/14 02:47:52;;;;;;;19.32;6.72;;;;;;;0.65;85.25;99395.45;2222615;80;21292;-75
2021/04/14 02:50:54;;;;;;;19.07;6.95;;;;;;;0.67;84.89;99398.86;2222541;80;21783;-76
2021/04/14 02:53:56;;;;;;;19.92;6.85;;;;;;;0.66;85.43;99394.55;2222961;80;21295;-76
2021/04/14 02:56:58;;;;;;;18.10;6.28;;;;;;;0.66;84.58;99394.14;2196098;80;21728;-76
2021/04/14 03:00:00;;;;;;;17.90;6.12;;;;;;;0.68;84.67;99394.96;2223063;80;21276;-80
2021/04/14 03:03:02;;;;;;;20.12;7.12;;;;;;;0.70;85.29;99389.78;2222571;80;21297;-74
2021/04/14 03:06:04;;;;;;;17.07;5.83;;;;;;;0.73;85.21;99394.06;2195939;80;21728;-78
2021/04/14 03:09:06;;;;;;;18.62;6.37;;;;;;;0.74;84.90;99388.03;2222581;80;21280;-77
2021/04/14 03:12:08;;;;;;;20.45;6.42;;;;;;;0.74;85.49;99384.16;2222851;80;21264;-77
2021/04/14 03:15:10;;;;;;;19.65;6.45;;;;;;;0.72;85.16;99389.34;2222835;80;21280;-77
2021/04/14 03:18:12;;;;;;;19.85;6.08;;;;;;;0.72;85.17;99385.88;2222521;80;21312;-77
2021/04/14 03:21:14;;;;;;;20.02;6.78;;;;;;;0.72;84.79;99385.47;2222528;80;21295;-79
2021/04/14 03:24:16;;;;;;;20.57;7.12;;;;;;;0.71;84.82;99385.04;2222711;80;21264;-76
2021/04/14 03:27:18;;;;;;;17.87;6.30;;;;;;;0.74;84.90;99386.29;2222717;80;21736;-79
2021/04/14 03:30:20;;;;;;;17.55;6.60;;;;;;;0.78;85.28;99387.97;2222552;80;21265;-78
2021/04/14 03:33:22;;;;;;;19.75;7.33;;;;;;;0.76;84.83;99389.73;2221151;80;21328;-79
2021/04/14 03:36:24;;;;;;;20.52;7.40;;;;;;;0.76;85.39;99387.56;2218515;80;21582;-77
2021/04/14 03:39:26;;;;;;;20.65;7.37;;;;;;;0.80;85.04;99375.87;2218429;80;21142;-77
2021/04/14 03:42:28;;;;;;;18.00;6.55;;;;;;;0.82;85.06;99375.85;2218511;80;21127;-77
2021/04/14 03:45:33;;;;;;;20.65;6.97;;;;;;;0.86;84.84;99373.23;2218546;80;21107;-79
2021/04/14 03:48:34;;;;;;;18.95;7.03;;;;;;;0.85;85.16;99376.69;2218168;80;21281;-71
2021/04/14 03:51:36;;;;;;;19.10;6.72;;;;;;;0.88;84.86;99375.80;2218465;80;21574;-77
2021/04/14 03:54:38;;;;;;;17.75;6.20;;;;;;;0.87;84.87;99375.37;2218939;80;21277;-79
2021/04/14 03:57:40;;;;;;;18.82;6.72;;;;;;;0.85;85.13;99379.72;2218446;80;21265;-79
2021/04/14 04:00:42;;;;;;;19.05;6.50;;;;;;;0.85;85.13;99379.72;2218366;80;21264;-76
2021/04/14 04:03:44;;;;;;;20.25;6.47;;;;;;;0.85;84.96;99382.30;2218514;80;21574;-76
2021/04/14 04:06:46;;;;;;;19.52;6.25;;;;;;;0.86;85.27;99382.28;2189976;80;21280;-77
2021/04/14 04:09:48;;;;;;;19.00;6.05;;;;;;;0.89;84.88;99380.10;2218394;80;21264;-76
2021/04/14 04:12:50;;;;;;;17.85;5.80;;;;;;;0.88;85.06;99383.55;2218473;80;21628;-76
2021/04/14 04:15:52;;;;;;;18.50;6.00;;;;;;;0.90;84.73;99384.37;2218403;80;21601;-76
2021/04/14 04:18:54;;;;;;;17.23;5.85;;;;;;;0.93;84.70;99388.20;2218736;80;21264;-78
2021/04/14 04:21:56;;;;;;;16.70;5.78;;;;;;;0.92;84.89;99390.39;2218377;80;21296;-78
2021/04/14 04:24:58;;;;;;;19.62;6.62;;;;;;;0.96;84.72;99385.61;2218413;80;21713;-79
2021/04/14 04:28:00;;;;;;;19.73;6.92;;;;;;;0.98;84.93;99392.88;2218407;80;21304;-75
2021/04/14 04:31:02;;;;;;;17.85;5.85;;;;;;;0.98;84.54;99395.47;2218725;80;21285;-76
2021/04/14 04:34:04;;;;;;;20.55;6.95;;;;;;;0.99;84.84;99395.89;2218958;80;21319;-78
2021/04/14 04:37:06;;;;;;;21.12;6.50;;;;;;;1.00;84.69;99405.33;2219051;80;21277;-78
2021/04/14 04:40:08;;;;;;;19.02;6.75;;;;;;;1.00;84.56;99401.45;2219030;80;21287;-73
2021/04/14 04:43:10;;;;;;;18.90;6.50;;;;;;;0.99;84.53;99401.06;2219217;80;21316;-75
2021/04/14 04:46:11;;;;;;;20.57;7.03;;;;;;;1.00;84.39;99400.61;2219032;80;21291;-75
2021/04/14 04:49:13;;;;;;;17.90;6.10;;;;;;;1.01;84.54;99401.88;2219110;80;21236;-77
2021/04/14 04:52:15;;;;;;;22.55;7.20;;;;;;;1.01;84.57;99413.95;2219062;80;21731;-74
2021/04/14 04:55:17;;;;;;;20.17;6.90;;;;;;;1.06;84.56;99408.72;2219145;80;21292;-78
2021/04/14 04:58:20;;;;;;;20.45;6.55;;;;;;;1.07;84.42;99409.99;2219154;80;21245;-78
2021/04/14 05:01:22;;;;;;;19.67;6.70;;;;;;;1.08;84.45;99410.84;2219347;80;21328;-77
2021/04/14 05:04:24;;;;;;;21.37;6.85;;;;;;;1.06;84.45;99412.15;2219080;80;21145;-76
2021/04/14 05:07:26;;;;;;;19.42;6.58;;;;;;;1.07;84.67;99414.31;2219007;80;21740;-74
2021/04/14 05:10:30;;;;;;;18.98;6.60;;;;;;;1.04;85.31;99418.63;2219035;80;21281;-72
2021/04/14 05:13:32;;;;;;;19.35;6.08;;;;;;;1.04;84.88;99416.50;2218897;80;21292;-76
2021/04/14 05:16:34;;;;;;;18.75;6.12;;;;;;;1.06;85.13;99417.31;2219056;80;21158;-73
2021/04/14 05:19:37;;;;;;;20.10;6.12;;;;;;;1.09;84.88;99425.47;2219120;80;21279;-72
2021/04/14 05:22:39;;;;;;;19.25;6.78;;;;;;;1.15;84.44;99419.80;2219368;80;21728;-72
2021/04/14 05:25:41;;;;;;;19.10;6.17;;;;;;;1.14;84.52;99420.66;2219028;80;21292;-76
2021/04/14 05:28:44;;;;;;;17.95;6.08;;;;;;;1.10;85.08;99427.19;2218940;80;21589;-74
2021/04/14 05:31:47;;;;;;;18.17;6.58;;;;;;;1.07;84.74;99425.49;2219385;80;21304;-77
2021/04/14 05:34:49;;;;;;;19.30;6.90;;;;;;;1.10;84.91;99424.16;2218698;80;21115;-73
2021/04/14 05:37:51;;;;;;;19.80;6.45;;;;;;;1.12;84.72;99426.72;2219035;80;21753;-74
2021/04/14 05:40:53;;;;;;;18.10;5.85;;;;;;;1.15;84.96;99431.84;2218917;80;21351;-78
2021/04/14 05:43:55;;;;;;;17.23;6.03;;;;;;;1.14;85.06;99428.42;2218998;80;21284;-75
2021/04/14 05:46:57;;;;;;;18.65;6.40;;;;;;;1.10;84.79;99437.53;2219502;80;21287;-73
2021/04/14 05:49:59;;;;;;;19.15;6.45;;;;;;;1.08;84.70;99427.63;2218956;80;21280;-73
2021/04/14 05:53:01;;;;;;;19.20;6.58;;;;;;;1.07;85.18;99434.98;2218974;80;21328;-72
2021/04/14 05:56:04;;;;;;;18.60;6.47;;;;;;;1.12;84.99;99434.47;2219250;80;21309;-75
2021/04/14 05:59:06;;;;;;;18.45;6.33;;;;;;;1.11;84.92;99431.05;2218976;80;21741;-72
2021/04/14 06:02:08;;;;;;;18.00;6.55;;;;;;;1.10;84.80;99428.03;2218913;80;21280;-72
2021/04/14 06:05:10;;;;;;;17.30;6.17;;;;;;;1.12;84.97;99432.77;2219344;80;21130;-72
2021/04/14 06:08:11;;;;;;;16.57;5.42;;;;;;;1.18;84.76;99422.34;2218958;80;21285;-74
2021/04/14 06:11:13;;;;;;;15.08;4.60;;;;;;;1.23;84.33;99433.90;2218903;80;21269;-73
2021/04/14 06:14:16;;;;;;;14.65;4.67;;;;;;;1.25;83.92;99431.29;2218951;80;21272;-71
2021/04/14 06:17:18;;;;;;;17.07;4.83;;;;;;;1.21;84.17;99426.17;2219222;80;21692;-73
2021/04/14 06:20:21;;;;;;;17.07;4.58;;;;;;;1.20;84.03;99436.08;2192262;80;21146;-71
2021/04/14 06:23:23;;;;;;;17.80;5.00;;;;;;;1.18;83.87;99424.08;2218805;80;21288;-71
2021/04/14 06:26:36;;;;;;;18.45;4.87;;;;;;;1.25;84.04;99424.41;2218970;80;21257;-72
2021/04/14 06:29:36;;;;;;;16.77;5.05;;;;;;;1.31;84.03;99420.89;2218368;80;21709;-71
2021/04/14 06:32:38;;;;;;;16.75;5.55;;;;;;;1.33;83.82;99423.01;2218975;80;21256;-73
2021/04/14 06:35:40;;;;;;;17.32;5.58;;;;;;;1.32;83.92;99420.00;2218420;80;21764;-72
2021/04/14 06:38:45;;;;;;;20.85;5.70;;;;;;;1.34;83.82;99418.27;2218594;80;21566;-72
2021/04/14 06:41:57;;;;;;;21.27;6.20;;;;;;;1.35;83.84;99419.53;2218038;80;21159;-73
2021/04/14 06:44:58;;;;;;;19.87;6.15;;;;;;;1.40;83.64;99424.63;2218384;80;21138;-71
2021/04/14 06:48:00;;;;;;;20.23;6.28;;;;;;;1.36;83.71;99420.38;2218305;80;21293;-72
2021/04/14 06:51:02;;;;;;;18.10;5.53;;;;;;;1.37;83.56;99417.77;2218364;80;21296;-72
2021/04/14 06:54:04;;;;;;;19.67;5.67;;;;;;;1.38;83.60;99428.53;2218399;80;21697;-72
2021/04/14 06:57:07;;;;;;;17.75;5.22;;;;;;;1.41;83.68;99416.42;2218092;80;21111;-72
2021/04/14 07:00:11;;;;;;;18.67;4.87;;;;;;;1.43;83.48;99418.56;2218246;80;21692;-72
2021/04/14 07:03:13;;;;;;;19.20;5.33;;;;;;;1.42;83.41;99418.98;2218123;80;21292;-72
2021/04/14 07:06:15;;;;;;;15.38;4.67;;;;;;;1.46;83.59;99423.69;2218258;80;21712;-72
2021/04/14 07:09:17;;;;;;;14.35;4.28;;;;;;;1.47;83.48;99416.36;2218368;80;21759;-72
2021/04/14 07:12:19;;;;;;;14.03;4.05;;;;;;;1.49;83.42;99421.05;2218465;80;21166;-72
2021/04/14 07:15:20;;;;;;;14.55;4.12;;;;;;;1.49;83.23;99421.90;2218810;80;21305;-72
2021/04/14 07:18:22;;;;;;;15.03;4.20;;;;;;;1.53;83.12;99416.26;2218428;80;21146;-72
2021/04/14 07:21:25;;;;;;;15.95;3.55;;;;;;;1.55;82.79;99429.59;2218348;80;21142;-72
2021/04/14 07:24:27;;;;;;;14.95;3.60;;;;;;;1.59;83.01;99422.63;2218444;80;21154;-72
2021/04/14 07:27:29;;;;;;;;;;;;;;;1.58;83.18;99432.58;2221033;80;21577;-72
2021/04/14 07:30:31;;;;;;;10.98;3.92;;;;;;;1.55;83.26;99432.17;2218248;80;20179;-72
2021/04/14 07:33:34;;;;;;;13.03;3.50;;;;;;;1.61;83.21;99430.36;2218533;80;21273;-72
2021/04/14 07:36:36;;;;;;;12.35;3.37;;;;;;;1.67;83.23;99420.78;2222578;80;21296;-72
2021/04/14 07:39:38;;;;;;;9.50;3.25;;;;;;;1.68;83.28;99433.27;2222561;80;21304;-72
2021/04/14 07:42:41;;;;;;;12.30;3.10;;;;;;;1.68;83.13;99431.55;2222547;80;21296;-73
2021/04/14 07:45:43;;;;;;;10.03;3.33;;;;;;;1.77;82.81;99435.73;2222530;80;21717;-72
2021/04/14 07:48:45;;;;;;;12.35;3.20;;;;;;;1.80;82.84;99429.66;2195980;80;21284;-72
2021/04/14 07:51:47;;;;;;;10.10;2.92;;;;;;;1.81;82.71;99423.17;2222597;80;21328;-72
2021/04/14 07:54:51;;;;;;;11.83;3.30;;;;;;;1.88;82.55;99422.61;2195902;80;21736;-72
2021/04/14 07:57:53;;;;;;;13.28;3.30;;;;;;;1.90;82.59;99423.01;2222395;80;21283;-73
2021/04/14 08:00:55;;;;;;;10.50;2.90;;;;;;;1.96;82.28;99424.64;2222475;80;21303;-72
2021/04/14 08:03:57;;;;;;;13.08;3.42;;;;;;;1.98;82.19;99429.80;2222535;80;21296;-72
2021/04/14 08:06:59;;;;;;;11.63;2.92;;;;;;;2.02;82.17;99424.98;2222525;80;21128;-72
2021/04/14 08:10:01;;;;;;;9.53;2.95;;;;;;;2.07;81.95;99421.89;2222498;80;21304;-72
2021/04/14 08:13:04;;;;;;;10.32;2.72;;;;;;;2.06;81.83;99426.20;2222756;80;21737;-72
2021/04/14 08:16:06;;;;;;;11.28;3.00;;;;;;;2.03;81.81;99428.84;2222621;80;21162;-72
2021/04/14 08:19:08;;;;;;;13.70;3.33;;;;;;;2.03;82.20;99425.41;2222448;80;21119;-72
2021/04/14 08:22:10;;;;;;;12.90;3.20;;;;;;;2.05;82.33;99427.52;2222510;80;21288;-72
2021/04/14 08:25:12;;;;;;;13.18;3.20;;;;;;;2.09;82.08;99421.41;2222473;80;21268;-73
2021/04/14 08:28:15;;;;;;;10.75;3.00;;;;;;;2.11;81.67;99425.27;2222834;80;21275;-73
2021/04/14 08:31:17;;;;;;;10.35;3.08;;;;;;;2.11;81.67;99425.27;2222611;80;21288;-73
2021/04/14 08:34:19;;;;;;;10.88;2.42;;;;;;;2.25;81.73;99429.31;2222791;80;21289;-73
2021/04/14 08:37:21;;;;;;;7.67;2.67;;;;;;;2.25;80.92;99433.20;2222508;80;21280;-73
2021/04/14 08:40:25;;;;;;;12.10;2.62;;;;;;;2.26;81.34;99428.89;2222473;80;21129;-73
2021/04/14 08:43:27;;;;;;;12.95;2.80;;;;;;;2.30;81.53;99430.55;2222369;80;21713;-73
2021/04/14 08:46:32;;;;;;;11.22;2.92;;;;;;;2.30;81.29;99438.74;2222511;80;21269;-74
2021/04/14 08:49:33;;;;;;;8.83;2.90;;;;;;;2.30;81.05;99434.44;2222213;80;21272;-73
2021/04/14 08:52:35;;;;;;;12.05;2.80;;;;;;;2.31;81.33;99431.39;2222840;80;21308;-73
2021/04/14 08:55:37;;;;;;;11.60;2.87;;;;;;;2.36;81.39;99427.00;2222509;80;21268;-73
2021/04/14 08:58:39;;;;;;;12.55;2.90;;;;;;;2.47;81.55;99433.27;2222464;80;21737;-73
2021/04/14 09:01:41;;;;;;;11.53;3.00;;;;;;;2.45;80.67;99433.30;2222468;80;21320;-73
2021/04/14 09:04:43;;;;;;;12.45;2.72;;;;;;;2.39;80.71;99430.37;2222482;80;21288;-74
2021/04/14 09:07:45;;;;;;;8.90;2.40;;;;;;;2.41;80.66;99437.69;2222495;80;21141;-73
2021/04/14 09:10:52;;;;;;;7.90;2.33;;;;;;;2.47;81.38;99431.55;2222472;80;21615;-74
2021/04/14 09:14:01;;;;;;;9.20;2.17;;;;;;;2.51;81.03;99433.62;2195609;80;21127;-73
2021/04/14 09:16:59;;;;;;;5.85;1.80;;;;;;;2.50;80.21;99430.62;2221983;80;21272;-73
2021/04/14 09:20:01;;;;;;;10.03;2.42;;;;;;;2.45;80.66;99432.00;2196033;80;21327;-73
2021/04/14 09:23:03;;;;;;;7.22;2.15;;;;;;;2.41;81.02;99420.86;2222538;80;21749;-73
2021/04/14 09:26:05;;;;;;;10.30;2.47;;;;;;;2.52;81.39;99417.22;2222425;80;21261;-73
2021/04/14 09:29:07;;;;;;;7.87;2.30;;;;;;;2.60;80.83;99418.78;2222773;80;21574;-74
2021/04/14 09:32:09;;;;;;;11.78;2.17;;;;;;;2.63;81.04;99417.00;2222404;80;21273;-73
2021/04/14 09:35:12;;;;;;;8.25;2.45;;;;;;;2.58;80.21;99419.23;2220899;80;21174;-74
2021/04/14 09:38:21;;;;;;;9.35;2.70;;;;;;;2.54;80.90;99418.03;2218888;80;21284;-74
2021/04/14 09:41:18;;;;;;;10.85;2.67;;;;;;;2.62;80.45;99408.84;2217856;80;21770;-73
2021/04/14 09:44:21;;;;;;;11.50;2.83;;;;;;;2.64;80.94;99410.48;2218833;80;21753;-73
2021/04/14 09:47:23;;;;;;;12.20;2.30;;;;;;;2.72;80.62;99413.80;2218993;80;21713;-73
2021/04/14 09:50:25;;;;;;;10.08;2.40;;;;;;;2.71;80.35;99420.30;2219051;80;21288;-73
2021/04/14 09:53:28;;;;;;;11.55;2.72;;;;;;;2.67;80.34;99403.98;2192464;80;21317;-73
2021/04/14 09:56:32;;;;;;;8.90;2.40;;;;;;;2.67;80.34;99403.98;2218878;80;21272;-73
2021/04/14 09:59:34;;;;;;;11.55;2.52;;;;;;;2.75;80.31;99417.62;2218829;80;21277;-73
2021/04/14 10:02:37;;;;;;;14.10;2.40;;;;;;;2.76;81.35;99405.08;2219069;80;21720;-73
2021/04/14 10:05:39;;;;;;;9.05;2.37;;;;;;;2.74;80.07;99396.50;2192431;80;21598;-73
2021/04/14 10:08:41;;;;;;;11.25;2.22;;;;;;;2.77;80.99;99402.04;2219296;80;21272;-72
2021/04/14 10:11:43;;;;;;;9.20;2.30;;;;;;;2.85;80.83;99401.45;2219323;80;21272;-73
2021/04/14 10:14:46;;;;;;;14.10;2.77;;;;;;;2.98;80.96;99406.39;2218957;80;21260;-73
2021/04/14 10:17:48;;;;;;;12.53;2.70;;;;;;;2.97;80.25;99403.38;2218966;80;21264;-73
2021/04/14 10:20:50;;;;;;;11.75;3.00;;;;;;;2.99;80.58;99396.00;2219038;80;21693;-73
2021/04/14 10:23:52;;;;;;;9.55;2.50;;;;;;;2.97;80.58;99396.91;2219087;80;21816;-73
2021/04/14 10:26:54;;;;;;;12.20;2.80;;;;;;;3.06;81.03;99393.68;2218996;80;21265;-73
2021/04/14 10:29:56;;;;;;;12.18;2.60;;;;;;;3.14;80.17;99405.17;2219016;80;21700;-73
2021/04/14 10:32:58;;;;;;;11.25;3.10;;;;;;;3.17;80.37;99385.66;2219094;80;21704;-73
2021/04/14 10:36:00;;;;;;;8.00;2.50;;;;;;;3.17;79.62;99388.70;2218597;80;21761;-73
2021/04/14 10:39:02;;;;;;;9.95;2.75;;;;;;;3.08;80.33;99384.13;2218257;80;21272;-74
2021/04/14 10:42:04;;;;;;;13.60;3.02;;;;;;;3.14;80.33;99384.89;2218362;80;21273;-73
2021/04/14 10:45:06;;;;;;;10.45;2.65;;;;;;;3.17;80.52;99377.04;2218489;80;21598;-73
2021/04/14 10:48:08;;;;;;;10.95;3.42;;;;;;;3.26;80.74;99384.18;2218543;80;21115;-73
2021/04/14 10:51:10;;;;;;;10.25;3.00;;;;;;;3.39;80.39;99379.99;2218503;80;21142;-73
2021/04/14 10:54:12;;;;;;;11.80;3.15;;;;;;;3.46;78.22;99380.26;2218477;80;21613;-73
2021/04/14 10:57:14;;;;;;;9.55;3.17;;;;;;;3.49;80.21;99378.89;2218587;80;21150;-74
2021/04/14 11:00:17;;;;;;;12.13;3.20;;;;;;;3.47;79.46;99372.90;2218596;80;21705;-73
2021/04/14 11:03:19;;;;;;;14.80;3.42;;;;;;;3.42;79.20;99382.09;2218447;80;21173;-73
2021/04/14 11:06:21;;;;;;;12.00;3.62;;;;;;;3.30;79.80;99371.98;2218529;80;21149;-73
2021/04/14 11:09:23;;;;;;;16.48;4.08;;;;;;;3.31;80.82;99385.82;2218484;80;21131;-74
2021/04/14 11:12:25;;;;;;;13.28;3.60;;;;;;;3.29;79.20;99378.08;2218421;80;21142;-73
2021/04/14 11:15:28;;;;;;;13.78;3.80;;;;;;;3.21;80.64;99378.69;2218451;80;21562;-73
2021/04/14 11:18:30;;;;;;;13.80;3.90;;;;;;;3.27;80.03;99377.23;2218379;80;21161;-74
2021/04/14 11:21:32;;;;;;;13.60;3.87;;;;;;;3.27;79.99;99389.75;2218394;80;21305;-75
2021/04/14 11:24:34;;;;;;;13.83;3.60;;;;;;;3.31;80.33;99376.74;2218450;80;21146;-74
2021/04/14 11:27:36;;;;;;;16.60;4.30;;;;;;;3.34;79.93;99383.16;2218397;80;21281;-74
2021/04/14 11:30:38;;;;;;;12.03;3.62;;;;;;;3.27;80.30;99387.16;2218425;80;21150;-75
2021/04/14 11:33:40;;;;;;;12.82;3.47;;;;;;;3.33;80.35;99388.77;2218441;80;21157;-74
2021/04/14 11:36:42;;;;;;;13.98;3.70;;;;;;;3.31;80.06;99379.34;2221289;80;21335;-74
2021/04/14 11:39:44;;;;;;;13.45;3.90;;;;;;;3.32;81.15;99381.02;2195876;80;21724;-73
2021/04/14 11:42:46;;;;;;;14.73;3.65;;;;;;;3.37;80.61;99374.00;2222899;80;21307;-74
2021/04/14 11:45:48;;;;;;;14.18;3.58;;;;;;;3.37;80.41;99375.30;2222888;80;21315;-74
2021/04/14 11:48:50;;;;;;;12.73;3.75;;;;;;;3.27;79.69;99378.08;2222528;80;21300;-74
2021/04/14 11:51:52;;;;;;;15.85;3.83;;;;;;;3.25;80.56;99375.14;2222821;80;21264;-74
2021/04/14 11:54:57;;;;;;;12.23;3.55;;;;;;;3.18;80.89;99371.81;2222487;80;21292;-74
2021/04/14 11:57:59;;;;;;;16.82;4.40;;;;;;;3.20;80.49;99375.67;2222392;80;21134;-74
2021/04/14 12:01:00;;;;;;;14.87;4.03;;;;;;;3.23;81.13;99371.28;2222626;80;21308;-74
2021/04/14 12:04:03;;;;;;;14.15;4.20;;;;;;;3.28;80.56;99369.42;2222665;80;21693;-74
2021/04/14 12:07:04;;;;;;;15.48;3.92;;;;;;;3.30;80.07;99370.69;2222530;80;21276;-74
2021/04/14 12:10:06;;;;;;;12.15;3.70;;;;;;;3.31;80.77;99368.96;2222514;80;21276;-74
2021/04/14 12:13:09;;;;;;;14.95;4.37;;;;;;;3.25;80.77;99365.61;2222550;80;21265;-74
2021/04/14 12:16:10;;;;;;;13.50;3.83;;;;;;;3.30;81.23;99368.09;2222538;80;21293;-73
2021/04/14 12:19:13;;;;;;;13.65;3.90;;;;;;;3.31;80.40;99372.85;2222448;80;21269;-74
2021/04/14 12:22:14;;;;;;;18.35;4.05;;;;;;;3.22;79.59;99361.80;2222504;80;21304;-74
2021/04/14 12:25:17;;;;;;;15.20;4.00;;;;;;;3.13;80.30;99361.98;2222527;80;21273;-73
2021/04/14 12:28:18;;;;;;;10.48;3.30;;;;;;;3.16;80.92;99360.64;2222621;80;21257;-73
2021/04/14 12:31:20;;;;;;;14.03;3.90;;;;;;;3.12;79.76;99364.19;2222514;80;21276;-73
2021/04/14 12:34:22;;;;;;;10.23;3.00;;;;;;;3.14;80.43;99370.63;2222493;80;21285;-74
2021/04/14 12:37:24;;;;;;;14.23;3.40;;;;;;;3.07;80.29;99372.03;2219702;80;21280;-74
2021/04/14 12:40:26;;;;;;;10.30;2.98;;;;;;;2.91;80.83;99368.92;2219382;80;21284;-74
2021/04/14 12:43:28;;;;;;;7.37;2.98;;;;;;;2.83;80.59;99370.84;2219034;80;21284;-74
2021/04/14 12:46:30;;;;;;;13.08;3.45;;;;;;;2.83;81.67;99366.96;2219136;80;21704;-73
2021/04/14 12:49:37;;;;;;;12.60;3.62;;;;;;;2.97;81.59;99361.92;2219167;80;21554;-74
2021/04/14 12:52:36;;;;;;;11.33;3.35;;;;;;;3.11;81.88;99363.77;2218527;80;21727;-74
2021/04/14 12:55:40;;;;;;;12.50;3.20;;;;;;;3.30;81.38;99366.80;2218901;80;21285;-75
2021/04/14 12:58:43;;;;;;;11.95;3.10;;;;;;;3.39;81.09;99361.41;2218871;80;21288;-74
2021/04/14 13:01:46;;;;;;;9.15;3.35;;;;;;;3.44;80.48;99370.38;2218876;80;21610;-75
2021/04/14 13:04:48;;;;;;;11.48;3.50;;;;;;;3.54;79.96;99361.95;2218741;80;21538;-74
2021/04/14 13:07:50;;;;;;;12.35;3.50;;;;;;;3.59;79.46;99362.25;2219007;80;21264;-74
2021/04/14 13:10:52;;;;;;;13.53;3.42;;;;;;;3.57;79.61;99352.79;2219023;80;21261;-74
2021/04/14 13:13:55;;;;;;;9.65;3.10;;;;;;;3.58;79.57;99360.98;2219145;80;21272;-74
2021/04/14 13:16:57;;;;;;;11.80;3.40;;;;;;;3.51;80.16;99368.51;2218973;80;21147;-76
2021/04/14 13:20:01;;;;;;;9.93;3.47;;;;;;;3.34;80.90;99363.25;2219333;80;21154;-74
2021/04/14 13:23:03;;;;;;;12.53;4.05;;;;;;;3.34;80.90;99363.25;2219133;80;21162;-74
2021/04/14 13:26:05;;;;;;;13.62;3.72;;;;;;;3.26;80.36;99368.63;2219028;80;21730;-74
2021/04/14 13:29:07;;;;;;;12.40;3.75;;;;;;;3.03;81.04;99363.95;2218973;80;21157;-74
2021/04/14 13:32:09;;;;;;;13.60;4.00;;;;;;;2.96;80.80;99375.33;2219223;80;21146;-74
2021/04/14 13:35:12;;;;;;;14.25;4.40;;;;;;;2.98;81.20;99368.81;2218906;80;21290;-74
2021/04/14 13:38:14;;;;;;;14.80;3.85;;;;;;;2.98;80.65;99364.48;2219223;80;21268;-74
2021/04/14 13:41:16;;;;;;;12.98;4.05;;;;;;;2.92;80.99;99366.75;2218968;80;21280;-74
2021/04/14 13:44:18;;;;;;;14.98;4.05;;;;;;;2.87;81.46;99363.84;2219087;80;21261;-73
2021/04/14 13:47:20;;;;;;;13.65;4.58;;;;;;;2.86;81.17;99358.24;2219008;80;21273;-74
2021/04/14 13:50:22;;;;;;;14.63;4.40;;;;;;;2.88;81.85;99365.11;2218942;80;21618;-74
2021/04/14 13:53:24;;;;;;;14.33;4.70;;;;;;;2.78;81.88;99355.37;2219256;80;21277;-74
2021/04/14 13:56:26;;;;;;;14.45;4.95;;;;;;;2.74;81.73;99355.05;2192408;80;21265;-74
2021/04/14 13:59:28;;;;;;;13.30;4.60;;;;;;;2.66;82.60;99366.00;2219326;80;21574;-74
2021/04/14 14:02:30;;;;;;;14.25;4.37;;;;;;;2.61;82.44;99363.93;2218980;80;21741;-74
2021/04/14 14:05:33;;;;;;;14.60;4.72;;;;;;;2.49;82.42;99359.02;2219110;80;21173;-73
2021/04/14 14:08:35;;;;;;;13.48;4.25;;;;;;;2.37;82.94;99362.25;2218903;80;21727;-74
2021/04/14 14:11:37;;;;;;;13.08;4.28;;;;;;;2.30;82.90;99357.19;2219079;80;21292;-74
2021/04/14 14:14:39;;;;;;;12.28;4.33;;;;;;;2.31;83.10;99359.75;2219339;80;21146;-74
2021/04/14 14:17:41;;;;;;;12.90;4.30;;;;;;;2.34;82.85;99357.55;2219061;80;21289;-74